sensor_id;sensor_type;location;lat;lon;timestamp;P1;durP1;ratioP1;P2;durP2;ratioP2
253;SDS011;590;48.772;8.846;2023-04-24T00:00:54;0.90;;;0.80;;
253;SDS011;590;48.772;8.846;2023-04-24T00:03:23;2.20;;;0.70;;
253;SDS011;590;48.772;8.846;2023-04-24T00:05:52;1.20;;;0.67;;
253;SDS011;590;48.772;8.846;2023-04-24T00:08:20;1.47;;;0.93;;
253;SDS011;590;48.772;8.846;2023-04-24T00:10:48;2.70;;;1.10;;
253;SDS011;590;48.772;8.846;2023-04-24T00:13:19;2.93;;;0.60;;
253;SDS011;590;48.772;8.846;2023-04-24T00:15:47;0.60;;;0.60;;
253;SDS011;590;48.772;8.846;2023-04-24T00:18:15;2.40;;;1.07;;
253;SDS011;590;48.772;8.846;2023-04-24T00:20:43;0.80;;;0.70;;
253;SDS011;590;48.772;8.846;2023-04-24T00:23:13;1.53;;;0.70;;
253;SDS011;590;48.772;8.846;2023-04-24T00:25:41;0.90;;;0.83;;
253;SDS011;590;48.772;8.846;2023-04-24T00:28:09;1.00;;;0.87;;
253;SDS011;590;48.772;8.846;2023-04-24T00:30:38;0.70;;;0.57;;
253;SDS011;590;48.772;8.846;2023-04-24T00:33:07;3.33;;;0.90;;
253;SDS011;590;48.772;8.846;2023-04-24T00:35:35;0.80;;;0.80;;
253;SDS011;590;48.772;8.846;2023-04-24T00:38:03;0.70;;;0.70;;
253;SDS011;590;48.772;8.846;2023-04-24T00:40:31;0.77;;;0.77;;
253;SDS011;590;48.772;8.846;2023-04-24T00:42:59;1.13;;;1.03;;
253;SDS011;590;48.772;8.846;2023-04-24T00:45:27;1.67;;;0.97;;
253;SDS011;590;48.772;8.846;2023-04-24T00:47:58;2.67;;;1.07;;
253;SDS011;590;48.772;8.846;2023-04-24T00:50:28;1.13;;;0.70;;
253;SDS011;590;48.772;8.846;2023-04-24T00:52:57;2.30;;;0.80;;
253;SDS011;590;48.772;8.846;2023-04-24T00:55:25;0.80;;;0.70;;
253;SDS011;590;48.772;8.846;2023-04-24T00:57:53;1.60;;;0.77;;
253;SDS011;590;48.772;8.846;2023-04-24T01:00:21;0.90;;;0.60;;
253;SDS011;590;48.772;8.846;2023-04-24T01:02:49;1.57;;;1.00;;
253;SDS011;590;48.772;8.846;2023-04-24T01:05:21;1.07;;;0.70;;
253;SDS011;590;48.772;8.846;2023-04-24T01:07:49;1.10;;;0.97;;
253;SDS011;590;48.772;8.846;2023-04-24T01:10:17;1.13;;;1.03;;
253;SDS011;590;48.772;8.846;2023-04-24T01:12:46;1.03;;;0.70;;
253;SDS011;590;48.772;8.846;2023-04-24T01:15:14;0.80;;;0.80;;
253;SDS011;590;48.772;8.846;2023-04-24T01:17:42;0.90;;;0.70;;
253;SDS011;590;48.772;8.846;2023-04-24T01:20:11;0.70;;;0.70;;
253;SDS011;590;48.772;8.846;2023-04-24T01:22:43;0.80;;;0.60;;
253;SDS011;590;48.772;8.846;2023-04-24T01:25:11;1.00;;;0.67;;
253;SDS011;590;48.772;8.846;2023-04-24T01:27:39;0.90;;;0.67;;
253;SDS011;590;48.772;8.846;2023-04-24T01:30:07;0.83;;;0.70;;
253;SDS011;590;48.772;8.846;2023-04-24T01:32:36;0.70;;;0.53;;
253;SDS011;590;48.772;8.846;2023-04-24T01:35:05;2.40;;;0.97;;
253;SDS011;590;48.772;8.846;2023-04-24T01:37:34;2.73;;;1.37;;
253;SDS011;590;48.772;8.846;2023-04-24T01:40:05;3.37;;;1.00;;
253;SDS011;590;48.772;8.846;2023-04-24T01:42:34;0.77;;;0.77;;
253;SDS011;590;48.772;8.846;2023-04-24T01:45:03;1.10;;;1.10;;
253;SDS011;590;48.772;8.846;2023-04-24T01:47:32;1.60;;;0.90;;
253;SDS011;590;48.772;8.846;2023-04-24T01:50:00;1.17;;;0.93;;
253;SDS011;590;48.772;8.846;2023-04-24T01:52:28;1.83;;;0.83;;
253;SDS011;590;48.772;8.846;2023-04-24T01:54:59;2.20;;;0.90;;
253;SDS011;590;48.772;8.846;2023-04-24T01:57:28;1.07;;;0.70;;
253;SDS011;590;48.772;8.846;2023-04-24T01:59:57;0.83;;;0.70;;
253;SDS011;590;48.772;8.846;2023-04-24T02:02:25;1.47;;;0.80;;
253;SDS011;590;48.772;8.846;2023-04-24T02:04:55;1.00;;;0.80;;
253;SDS011;590;48.772;8.846;2023-04-24T02:07:23;0.83;;;0.60;;
253;SDS011;590;48.772;8.846;2023-04-24T02:09:51;0.70;;;0.60;;
253;SDS011;590;48.772;8.846;2023-04-24T02:12:19;2.70;;;0.90;;
253;SDS011;590;48.772;8.846;2023-04-24T02:14:48;0.87;;;0.70;;
253;SDS011;590;48.772;8.846;2023-04-24T02:17:16;1.37;;;0.90;;
253;SDS011;590;48.772;8.846;2023-04-24T02:19:45;0.73;;;0.70;;
253;SDS011;590;48.772;8.846;2023-04-24T02:22:13;1.43;;;1.00;;
253;SDS011;590;48.772;8.846;2023-04-24T02:24:41;0.70;;;0.70;;
253;SDS011;590;48.772;8.846;2023-04-24T02:27:09;1.07;;;0.80;;
253;SDS011;590;48.772;8.846;2023-04-24T02:29:37;0.70;;;0.63;;
253;SDS011;590;48.772;8.846;2023-04-24T02:32:07;0.90;;;0.80;;
253;SDS011;590;48.772;8.846;2023-04-24T02:34:37;0.73;;;0.70;;
253;SDS011;590;48.772;8.846;2023-04-24T02:37:05;0.90;;;0.90;;
253;SDS011;590;48.772;8.846;2023-04-24T02:39:34;0.80;;;0.80;;
253;SDS011;590;48.772;8.846;2023-04-24T02:42:01;1.00;;;0.93;;
253;SDS011;590;48.772;8.846;2023-04-24T02:44:29;0.90;;;0.80;;
253;SDS011;590;48.772;8.846;2023-04-24T02:46:57;1.90;;;1.33;;
253;SDS011;590;48.772;8.846;2023-04-24T02:49:27;1.50;;;0.87;;
253;SDS011;590;48.772;8.846;2023-04-24T02:51:54;0.80;;;0.70;;
253;SDS011;590;48.772;8.846;2023-04-24T02:54:23;1.03;;;0.77;;
253;SDS011;590;48.772;8.846;2023-04-24T02:56:51;0.80;;;0.70;;
253;SDS011;590;48.772;8.846;2023-04-24T02:59:19;1.27;;;1.23;;
253;SDS011;590;48.772;8.846;2023-04-24T03:01:46;0.57;;;0.50;;
253;SDS011;590;48.772;8.846;2023-04-24T03:04:15;2.30;;;1.03;;
253;SDS011;590;48.772;8.846;2023-04-24T03:06:48;0.80;;;0.80;;
253;SDS011;590;48.772;8.846;2023-04-24T03:09:18;1.40;;;1.10;;
253;SDS011;590;48.772;8.846;2023-04-24T03:11:46;2.17;;;1.07;;
253;SDS011;590;48.772;8.846;2023-04-24T03:14:14;1.00;;;0.90;;
253;SDS011;590;48.772;8.846;2023-04-24T03:16:43;1.53;;;0.90;;
253;SDS011;590;48.772;8.846;2023-04-24T03:19:11;1.40;;;0.90;;
253;SDS011;590;48.772;8.846;2023-04-24T03:21:38;1.10;;;0.80;;
253;SDS011;590;48.772;8.846;2023-04-24T03:24:08;0.90;;;0.80;;
253;SDS011;590;48.772;8.846;2023-04-24T03:26:36;2.60;;;0.90;;
253;SDS011;590;48.772;8.846;2023-04-24T03:29:04;1.10;;;0.93;;
253;SDS011;590;48.772;8.846;2023-04-24T03:31:32;0.90;;;0.87;;
253;SDS011;590;48.772;8.846;2023-04-24T03:34:00;1.13;;;1.10;;
253;SDS011;590;48.772;8.846;2023-04-24T03:36:28;1.27;;;1.17;;
253;SDS011;590;48.772;8.846;2023-04-24T03:38:56;2.50;;;1.33;;
253;SDS011;590;48.772;8.846;2023-04-24T03:41:26;1.73;;;1.17;;
253;SDS011;590;48.772;8.846;2023-04-24T03:43:54;0.90;;;0.80;;
253;SDS011;590;48.772;8.846;2023-04-24T03:46:22;1.00;;;0.87;;
253;SDS011;590;48.772;8.846;2023-04-24T03:48:50;1.53;;;0.90;;
253;SDS011;590;48.772;8.846;2023-04-24T03:51:18;1.37;;;1.07;;
253;SDS011;590;48.772;8.846;2023-04-24T03:53:46;0.90;;;0.90;;
253;SDS011;590;48.772;8.846;2023-04-24T03:56:14;2.17;;;1.80;;
253;SDS011;590;48.772;8.846;2023-04-24T03:58:43;2.40;;;0.90;;
253;SDS011;590;48.772;8.846;2023-04-24T04:01:11;1.53;;;1.17;;
253;SDS011;590;48.772;8.846;2023-04-24T04:03:39;0.90;;;0.90;;
253;SDS011;590;48.772;8.846;2023-04-24T04:06:07;1.57;;;0.90;;
253;SDS011;590;48.772;8.846;2023-04-24T04:08:37;1.53;;;1.00;;
253;SDS011;590;48.772;8.846;2023-04-24T04:11:05;2.03;;;1.20;;
253;SDS011;590;48.772;8.846;2023-04-24T04:13:33;0.90;;;0.80;;
253;SDS011;590;48.772;8.846;2023-04-24T04:16:02;1.43;;;1.17;;
253;SDS011;590;48.772;8.846;2023-04-24T04:18:30;0.90;;;0.80;;
253;SDS011;590;48.772;8.846;2023-04-24T04:20:58;1.30;;;1.10;;
253;SDS011;590;48.772;8.846;2023-04-24T04:23:27;1.00;;;0.90;;
253;SDS011;590;48.772;8.846;2023-04-24T04:25:56;1.50;;;1.40;;
253;SDS011;590;48.772;8.846;2023-04-24T04:28:24;2.03;;;1.30;;
253;SDS011;590;48.772;8.846;2023-04-24T04:30:52;1.87;;;1.30;;
253;SDS011;590;48.772;8.846;2023-04-24T04:33:23;1.07;;;1.00;;
253;SDS011;590;48.772;8.846;2023-04-24T04:35:51;1.00;;;0.97;;
253;SDS011;590;48.772;8.846;2023-04-24T04:38:20;2.70;;;2.60;;
253;SDS011;590;48.772;8.846;2023-04-24T04:40:48;1.33;;;1.23;;
253;SDS011;590;48.772;8.846;2023-04-24T04:43:16;1.43;;;1.30;;
253;SDS011;590;48.772;8.846;2023-04-24T04:45:44;1.73;;;1.30;;
253;SDS011;590;48.772;8.846;2023-04-24T04:48:12;1.20;;;1.20;;
253;SDS011;590;48.772;8.846;2023-04-24T04:50:41;1.20;;;1.10;;
253;SDS011;590;48.772;8.846;2023-04-24T04:53:09;0.90;;;0.80;;
253;SDS011;590;48.772;8.846;2023-04-24T04:55:37;1.20;;;1.10;;
253;SDS011;590;48.772;8.846;2023-04-24T04:58:05;1.17;;;1.07;;
253;SDS011;590;48.772;8.846;2023-04-24T05:00:33;1.20;;;1.10;;
253;SDS011;590;48.772;8.846;2023-04-24T05:03:03;1.63;;;1.53;;
253;SDS011;590;48.772;8.846;2023-04-24T05:05:47;1.20;;;1.10;;
253;SDS011;590;48.772;8.846;2023-04-24T05:08:15;1.10;;;1.00;;
253;SDS011;590;48.772;8.846;2023-04-24T05:10:52;1.10;;;1.10;;
253;SDS011;590;48.772;8.846;2023-04-24T05:13:20;1.23;;;1.13;;
253;SDS011;590;48.772;8.846;2023-04-24T05:16:04;1.30;;;1.20;;
253;SDS011;590;48.772;8.846;2023-04-24T05:18:32;1.27;;;1.23;;
253;SDS011;590;48.772;8.846;2023-04-24T05:21:01;1.27;;;1.17;;
253;SDS011;590;48.772;8.846;2023-04-24T05:23:29;1.90;;;1.80;;
253;SDS011;590;48.772;8.846;2023-04-24T05:25:57;1.63;;;1.53;;
253;SDS011;590;48.772;8.846;2023-04-24T05:28:25;1.90;;;1.80;;
253;SDS011;590;48.772;8.846;2023-04-24T05:30:54;1.80;;;1.60;;
253;SDS011;590;48.772;8.846;2023-04-24T05:33:23;1.77;;;1.70;;
253;SDS011;590;48.772;8.846;2023-04-24T05:35:51;2.50;;;1.63;;
253;SDS011;590;48.772;8.846;2023-04-24T05:38:20;1.70;;;1.63;;
253;SDS011;590;48.772;8.846;2023-04-24T05:40:48;1.70;;;1.60;;
253;SDS011;590;48.772;8.846;2023-04-24T05:43:16;1.63;;;1.30;;
253;SDS011;590;48.772;8.846;2023-04-24T05:45:44;1.43;;;1.33;;
253;SDS011;590;48.772;8.846;2023-04-24T05:48:12;1.70;;;1.50;;
253;SDS011;590;48.772;8.846;2023-04-24T05:50:40;1.80;;;1.60;;
253;SDS011;590;48.772;8.846;2023-04-24T05:53:08;1.83;;;1.73;;
253;SDS011;590;48.772;8.846;2023-04-24T05:55:38;1.77;;;1.70;;
253;SDS011;590;48.772;8.846;2023-04-24T05:58:06;1.50;;;1.40;;
253;SDS011;590;48.772;8.846;2023-04-24T06:00:34;1.87;;;1.77;;
253;SDS011;590;48.772;8.846;2023-04-24T06:03:02;3.17;;;1.50;;
253;SDS011;590;48.772;8.846;2023-04-24T06:05:30;1.17;;;1.07;;
253;SDS011;590;48.772;8.846;2023-04-24T06:07:58;1.17;;;1.07;;
253;SDS011;590;48.772;8.846;2023-04-24T06:10:26;2.60;;;1.37;;
253;SDS011;590;48.772;8.846;2023-04-24T06:12:56;2.27;;;1.83;;
253;SDS011;590;48.772;8.846;2023-04-24T06:15:27;2.20;;;2.00;;
253;SDS011;590;48.772;8.846;2023-04-24T06:17:56;1.53;;;1.43;;
253;SDS011;590;48.772;8.846;2023-04-24T06:20:25;1.20;;;1.10;;
253;SDS011;590;48.772;8.846;2023-04-24T06:22:53;1.23;;;1.20;;
253;SDS011;590;48.772;8.846;2023-04-24T06:25:21;2.50;;;1.70;;
253;SDS011;590;48.772;8.846;2023-04-24T06:27:52;1.37;;;1.27;;
253;SDS011;590;48.772;8.846;2023-04-24T06:30:22;3.07;;;1.40;;
253;SDS011;590;48.772;8.846;2023-04-24T06:32:50;1.70;;;1.60;;
253;SDS011;590;48.772;8.846;2023-04-24T06:35:18;1.50;;;1.40;;
253;SDS011;590;48.772;8.846;2023-04-24T06:37:46;1.37;;;1.30;;
253;SDS011;590;48.772;8.846;2023-04-24T06:40:14;1.53;;;1.43;;
253;SDS011;590;48.772;8.846;2023-04-24T06:42:44;1.70;;;1.60;;
253;SDS011;590;48.772;8.846;2023-04-24T06:45:12;1.50;;;1.40;;
253;SDS011;590;48.772;8.846;2023-04-24T06:47:42;1.83;;;1.83;;
253;SDS011;590;48.772;8.846;2023-04-24T06:50:10;1.87;;;1.73;;
253;SDS011;590;48.772;8.846;2023-04-24T06:52:38;1.40;;;1.30;;
253;SDS011;590;48.772;8.846;2023-04-24T06:55:07;1.47;;;1.37;;
253;SDS011;590;48.772;8.846;2023-04-24T06:57:37;1.87;;;1.60;;
253;SDS011;590;48.772;8.846;2023-04-24T07:00:05;1.60;;;1.50;;
253;SDS011;590;48.772;8.846;2023-04-24T07:02:36;1.70;;;1.60;;
253;SDS011;590;48.772;8.846;2023-04-24T07:05:06;1.67;;;1.63;;
253;SDS011;590;48.772;8.846;2023-04-24T07:07:34;1.67;;;1.30;;
253;SDS011;590;48.772;8.846;2023-04-24T07:10:04;1.63;;;1.40;;
253;SDS011;590;48.772;8.846;2023-04-24T07:12:33;1.70;;;1.60;;
253;SDS011;590;48.772;8.846;2023-04-24T07:15:02;1.30;;;1.20;;
253;SDS011;590;48.772;8.846;2023-04-24T07:17:30;1.20;;;1.10;;
253;SDS011;590;48.772;8.846;2023-04-24T07:19:58;1.50;;;1.33;;
253;SDS011;590;48.772;8.846;2023-04-24T07:22:27;1.53;;;1.43;;
253;SDS011;590;48.772;8.846;2023-04-24T07:24:55;1.50;;;1.40;;
253;SDS011;590;48.772;8.846;2023-04-24T07:27:23;1.23;;;1.13;;
253;SDS011;590;48.772;8.846;2023-04-24T07:29:52;1.53;;;1.40;;
253;SDS011;590;48.772;8.846;2023-04-24T07:32:20;1.43;;;1.40;;
253;SDS011;590;48.772;8.846;2023-04-24T07:34:48;1.40;;;1.33;;
253;SDS011;590;48.772;8.846;2023-04-24T07:37:16;1.37;;;1.27;;
253;SDS011;590;48.772;8.846;2023-04-24T07:39:45;1.23;;;1.20;;
253;SDS011;590;48.772;8.846;2023-04-24T07:42:14;1.73;;;1.50;;
253;SDS011;590;48.772;8.846;2023-04-24T07:44:49;1.40;;;1.30;;
253;SDS011;590;48.772;8.846;2023-04-24T07:47:17;1.53;;;1.50;;
253;SDS011;590;48.772;8.846;2023-04-24T07:49:45;1.83;;;1.73;;
253;SDS011;590;48.772;8.846;2023-04-24T07:52:13;1.67;;;1.57;;
253;SDS011;590;48.772;8.846;2023-04-24T07:54:42;1.63;;;1.53;;
253;SDS011;590;48.772;8.846;2023-04-24T07:57:12;1.63;;;1.53;;
253;SDS011;590;48.772;8.846;2023-04-24T07:59:40;2.20;;;1.77;;
253;SDS011;590;48.772;8.846;2023-04-24T08:02:08;1.30;;;1.20;;
253;SDS011;590;48.772;8.846;2023-04-24T08:04:37;1.77;;;1.63;;
253;SDS011;590;48.772;8.846;2023-04-24T08:07:05;1.77;;;1.40;;
253;SDS011;590;48.772;8.846;2023-04-24T08:09:33;2.03;;;1.20;;
253;SDS011;590;48.772;8.846;2023-04-24T08:12:01;2.07;;;1.50;;
253;SDS011;590;48.772;8.846;2023-04-24T08:14:31;1.80;;;1.70;;
253;SDS011;590;48.772;8.846;2023-04-24T08:16:59;1.60;;;1.50;;
253;SDS011;590;48.772;8.846;2023-04-24T08:19:27;1.40;;;1.40;;
253;SDS011;590;48.772;8.846;2023-04-24T08:21:55;1.60;;;1.50;;
253;SDS011;590;48.772;8.846;2023-04-24T08:24:23;2.57;;;1.73;;
253;SDS011;590;48.772;8.846;2023-04-24T08:26:51;1.50;;;1.40;;
253;SDS011;590;48.772;8.846;2023-04-24T08:29:20;1.60;;;1.50;;
253;SDS011;590;48.772;8.846;2023-04-24T08:31:49;2.57;;;2.43;;
253;SDS011;590;48.772;8.846;2023-04-24T08:34:17;1.93;;;1.83;;
253;SDS011;590;48.772;8.846;2023-04-24T08:36:46;2.83;;;2.27;;
253;SDS011;590;48.772;8.846;2023-04-24T08:39:14;2.90;;;1.70;;
253;SDS011;590;48.772;8.846;2023-04-24T08:41:43;1.50;;;1.40;;
253;SDS011;590;48.772;8.846;2023-04-24T08:44:12;2.57;;;1.73;;
253;SDS011;590;48.772;8.846;2023-04-24T08:46:42;1.67;;;1.60;;
253;SDS011;590;48.772;8.846;2023-04-24T08:49:13;2.03;;;1.83;;
253;SDS011;590;48.772;8.846;2023-04-24T08:51:42;1.73;;;1.63;;
253;SDS011;590;48.772;8.846;2023-04-24T08:54:13;1.93;;;1.83;;
253;SDS011;590;48.772;8.846;2023-04-24T08:56:41;2.13;;;1.70;;
253;SDS011;590;48.772;8.846;2023-04-24T08:59:12;2.23;;;1.90;;
253;SDS011;590;48.772;8.846;2023-04-24T09:01:40;2.00;;;1.90;;
253;SDS011;590;48.772;8.846;2023-04-24T09:04:09;1.90;;;1.80;;
253;SDS011;590;48.772;8.846;2023-04-24T09:06:40;2.00;;;1.93;;
253;SDS011;590;48.772;8.846;2023-04-24T09:09:09;2.30;;;2.10;;
253;SDS011;590;48.772;8.846;2023-04-24T09:11:38;1.90;;;1.80;;
253;SDS011;590;48.772;8.846;2023-04-24T09:14:07;2.07;;;1.87;;
253;SDS011;590;48.772;8.846;2023-04-24T09:16:37;1.70;;;1.60;;
253;SDS011;590;48.772;8.846;2023-04-24T09:19:05;2.00;;;1.40;;
253;SDS011;590;48.772;8.846;2023-04-24T09:21:33;1.57;;;1.47;;
253;SDS011;590;48.772;8.846;2023-04-24T09:24:03;1.90;;;1.73;;
253;SDS011;590;48.772;8.846;2023-04-24T09:26:36;2.20;;;2.00;;
253;SDS011;590;48.772;8.846;2023-04-24T09:29:04;2.30;;;1.63;;
253;SDS011;590;48.772;8.846;2023-04-24T09:31:32;1.83;;;1.73;;
253;SDS011;590;48.772;8.846;2023-04-24T09:34:00;1.57;;;1.47;;
253;SDS011;590;48.772;8.846;2023-04-24T09:36:34;1.57;;;1.50;;
253;SDS011;590;48.772;8.846;2023-04-24T09:39:06;1.73;;;1.63;;
253;SDS011;590;48.772;8.846;2023-04-24T09:41:43;1.60;;;1.50;;
253;SDS011;590;48.772;8.846;2023-04-24T09:44:12;1.73;;;1.67;;
253;SDS011;590;48.772;8.846;2023-04-24T09:46:41;1.47;;;1.30;;
253;SDS011;590;48.772;8.846;2023-04-24T09:49:12;1.67;;;1.57;;
253;SDS011;590;48.772;8.846;2023-04-24T09:51:42;1.60;;;1.50;;
253;SDS011;590;48.772;8.846;2023-04-24T09:54:14;1.60;;;1.50;;
253;SDS011;590;48.772;8.846;2023-04-24T09:56:44;2.30;;;1.60;;
253;SDS011;590;48.772;8.846;2023-04-24T09:59:14;1.33;;;1.07;;
253;SDS011;590;48.772;8.846;2023-04-24T10:01:42;1.30;;;1.20;;
253;SDS011;590;48.772;8.846;2023-04-24T10:04:18;1.40;;;1.30;;
253;SDS011;590;48.772;8.846;2023-04-24T10:06:47;1.30;;;1.00;;
253;SDS011;590;48.772;8.846;2023-04-24T10:09:18;1.23;;;1.10;;
253;SDS011;590;48.772;8.846;2023-04-24T10:11:47;2.33;;;2.00;;
253;SDS011;590;48.772;8.846;2023-04-24T10:14:17;1.60;;;1.50;;
253;SDS011;590;48.772;8.846;2023-04-24T10:16:47;1.53;;;1.13;;
253;SDS011;590;48.772;8.846;2023-04-24T10:19:16;1.13;;;1.03;;
253;SDS011;590;48.772;8.846;2023-04-24T10:21:45;1.50;;;1.40;;
253;SDS011;590;48.772;8.846;2023-04-24T10:24:14;2.10;;;1.67;;
253;SDS011;590;48.772;8.846;2023-04-24T10:26:44;1.20;;;1.10;;
253;SDS011;590;48.772;8.846;2023-04-24T10:29:15;2.17;;;1.53;;
253;SDS011;590;48.772;8.846;2023-04-24T10:31:45;1.37;;;1.30;;
253;SDS011;590;48.772;8.846;2023-04-24T10:34:14;1.77;;;1.13;;
253;SDS011;590;48.772;8.846;2023-04-24T10:36:45;1.50;;;1.30;;
253;SDS011;590;48.772;8.846;2023-04-24T10:39:17;4.87;;;1.20;;
253;SDS011;590;48.772;8.846;2023-04-24T10:41:54;1.87;;;1.23;;
253;SDS011;590;48.772;8.846;2023-04-24T10:44:23;1.30;;;1.20;;
253;SDS011;590;48.772;8.846;2023-04-24T10:46:53;1.47;;;1.43;;
253;SDS011;590;48.772;8.846;2023-04-24T10:49:27;1.30;;;1.20;;
253;SDS011;590;48.772;8.846;2023-04-24T10:51:59;1.60;;;1.47;;
253;SDS011;590;48.772;8.846;2023-04-24T10:54:29;1.67;;;1.50;;
253;SDS011;590;48.772;8.846;2023-04-24T10:57:28;1.60;;;1.27;;
253;SDS011;590;48.772;8.846;2023-04-24T11:00:09;1.00;;;0.90;;
253;SDS011;590;48.772;8.846;2023-04-24T11:02:41;1.47;;;1.37;;
253;SDS011;590;48.772;8.846;2023-04-24T11:05:15;1.57;;;1.47;;
253;SDS011;590;48.772;8.846;2023-04-24T11:10:40;1.60;;;1.23;;
253;SDS011;590;48.772;8.846;2023-04-24T11:13:14;1.30;;;1.20;;
253;SDS011;590;48.772;8.846;2023-04-24T11:15:43;2.00;;;1.67;;
253;SDS011;590;48.772;8.846;2023-04-24T11:18:14;1.30;;;1.20;;
253;SDS011;590;48.772;8.846;2023-04-24T11:20:43;1.80;;;1.60;;
253;SDS011;590;48.772;8.846;2023-04-24T11:23:12;1.27;;;1.13;;
253;SDS011;590;48.772;8.846;2023-04-24T11:25:41;2.07;;;1.93;;
253;SDS011;590;48.772;8.846;2023-04-24T11:28:09;1.80;;;1.70;;
253;SDS011;590;48.772;8.846;2023-04-24T11:30:43;1.67;;;1.57;;
253;SDS011;590;48.772;8.846;2023-04-24T11:33:11;1.37;;;1.27;;
253;SDS011;590;48.772;8.846;2023-04-24T11:35:47;1.37;;;1.30;;
253;SDS011;590;48.772;8.846;2023-04-24T11:38:15;1.73;;;1.60;;
253;SDS011;590;48.772;8.846;2023-04-24T11:40:50;1.70;;;1.50;;
253;SDS011;590;48.772;8.846;2023-04-24T11:43:20;1.90;;;1.80;;
253;SDS011;590;48.772;8.846;2023-04-24T11:45:49;2.17;;;2.00;;
253;SDS011;590;48.772;8.846;2023-04-24T11:48:18;1.40;;;1.30;;
253;SDS011;590;48.772;8.846;2023-04-24T11:50:48;1.73;;;1.70;;
253;SDS011;590;48.772;8.846;2023-04-24T11:53:18;1.50;;;1.40;;
253;SDS011;590;48.772;8.846;2023-04-24T11:55:46;1.50;;;1.40;;
253;SDS011;590;48.772;8.846;2023-04-24T11:58:14;1.57;;;1.47;;
253;SDS011;590;48.772;8.846;2023-04-24T12:00:53;2.10;;;1.50;;
253;SDS011;590;48.772;8.846;2023-04-24T12:03:23;2.03;;;1.60;;
253;SDS011;590;48.772;8.846;2023-04-24T12:05:52;2.13;;;1.90;;
253;SDS011;590;48.772;8.846;2023-04-24T12:08:31;2.40;;;1.50;;
253;SDS011;590;48.772;8.846;2023-04-24T12:11:01;1.33;;;1.30;;
253;SDS011;590;48.772;8.846;2023-04-24T12:13:30;1.43;;;1.13;;
253;SDS011;590;48.772;8.846;2023-04-24T12:16:00;1.50;;;1.40;;
253;SDS011;590;48.772;8.846;2023-04-24T12:18:30;1.73;;;1.63;;
253;SDS011;590;48.772;8.846;2023-04-24T12:21:17;1.30;;;1.20;;
253;SDS011;590;48.772;8.846;2023-04-24T12:23:48;1.57;;;1.50;;
253;SDS011;590;48.772;8.846;2023-04-24T12:26:17;1.57;;;1.47;;
253;SDS011;590;48.772;8.846;2023-04-24T12:28:46;1.47;;;1.27;;
253;SDS011;590;48.772;8.846;2023-04-24T12:31:17;1.40;;;1.30;;
253;SDS011;590;48.772;8.846;2023-04-24T12:33:47;1.90;;;1.37;;
253;SDS011;590;48.772;8.846;2023-04-24T12:36:15;2.30;;;1.50;;
253;SDS011;590;48.772;8.846;2023-04-24T12:38:43;2.37;;;2.17;;
253;SDS011;590;48.772;8.846;2023-04-24T12:41:13;1.33;;;1.23;;
253;SDS011;590;48.772;8.846;2023-04-24T12:43:51;1.50;;;1.40;;
253;SDS011;590;48.772;8.846;2023-04-24T12:46:20;2.00;;;1.90;;
253;SDS011;590;48.772;8.846;2023-04-24T12:48:49;1.50;;;1.40;;
253;SDS011;590;48.772;8.846;2023-04-24T12:51:17;2.13;;;1.30;;
253;SDS011;590;48.772;8.846;2023-04-24T12:53:45;1.63;;;1.50;;
253;SDS011;590;48.772;8.846;2023-04-24T12:56:13;2.33;;;2.13;;
253;SDS011;590;48.772;8.846;2023-04-24T12:58:41;2.30;;;2.10;;
253;SDS011;590;48.772;8.846;2023-04-24T13:01:09;2.00;;;1.90;;
253;SDS011;590;48.772;8.846;2023-04-24T13:03:39;1.40;;;1.30;;
253;SDS011;590;48.772;8.846;2023-04-24T13:06:07;1.93;;;1.83;;
253;SDS011;590;48.772;8.846;2023-04-24T13:08:36;1.77;;;1.70;;
253;SDS011;590;48.772;8.846;2023-04-24T13:11:03;1.77;;;1.67;;
253;SDS011;590;48.772;8.846;2023-04-24T13:13:31;2.43;;;2.23;;
253;SDS011;590;48.772;8.846;2023-04-24T13:16:06;2.97;;;1.77;;
253;SDS011;590;48.772;8.846;2023-04-24T13:18:34;3.00;;;2.10;;
253;SDS011;590;48.772;8.846;2023-04-24T13:21:04;1.93;;;1.87;;
253;SDS011;590;48.772;8.846;2023-04-24T13:23:32;1.77;;;1.67;;
253;SDS011;590;48.772;8.846;2023-04-24T13:26:00;1.50;;;1.40;;
253;SDS011;590;48.772;8.846;2023-04-24T13:28:29;1.47;;;1.37;;
253;SDS011;590;48.772;8.846;2023-04-24T13:30:57;1.80;;;1.73;;
253;SDS011;590;48.772;8.846;2023-04-24T13:33:25;1.53;;;1.43;;
253;SDS011;590;48.772;8.846;2023-04-24T13:35:53;1.40;;;1.30;;
253;SDS011;590;48.772;8.846;2023-04-24T13:38:22;1.20;;;1.10;;
253;SDS011;590;48.772;8.846;2023-04-24T13:40:50;1.63;;;1.50;;
253;SDS011;590;48.772;8.846;2023-04-24T13:43:18;1.80;;;1.70;;
253;SDS011;590;48.772;8.846;2023-04-24T13:45:46;1.70;;;1.70;;
253;SDS011;590;48.772;8.846;2023-04-24T13:48:14;1.90;;;1.80;;
253;SDS011;590;48.772;8.846;2023-04-24T13:50:42;2.37;;;2.00;;
253;SDS011;590;48.772;8.846;2023-04-24T13:53:11;2.13;;;1.70;;
253;SDS011;590;48.772;8.846;2023-04-24T13:55:40;1.57;;;1.47;;
253;SDS011;590;48.772;8.846;2023-04-24T13:58:08;1.63;;;1.20;;
253;SDS011;590;48.772;8.846;2023-04-24T14:00:36;1.40;;;1.30;;
253;SDS011;590;48.772;8.846;2023-04-24T14:03:04;2.47;;;2.27;;
253;SDS011;590;48.772;8.846;2023-04-24T14:05:33;2.23;;;2.03;;
253;SDS011;590;48.772;8.846;2023-04-24T14:08:04;1.90;;;1.80;;
253;SDS011;590;48.772;8.846;2023-04-24T14:10:32;2.07;;;1.93;;
253;SDS011;590;48.772;8.846;2023-04-24T14:13:02;2.40;;;2.20;;
253;SDS011;590;48.772;8.846;2023-04-24T14:15:30;2.07;;;1.93;;
253;SDS011;590;48.772;8.846;2023-04-24T14:17:58;2.03;;;1.90;;
253;SDS011;590;48.772;8.846;2023-04-24T14:20:27;2.37;;;2.17;;
253;SDS011;590;48.772;8.846;2023-04-24T14:22:55;1.93;;;1.83;;
253;SDS011;590;48.772;8.846;2023-04-24T14:25:25;1.50;;;1.40;;
253;SDS011;590;48.772;8.846;2023-04-24T14:27:53;2.47;;;2.10;;
253;SDS011;590;48.772;8.846;2023-04-24T14:30:22;1.93;;;1.87;;
253;SDS011;590;48.772;8.846;2023-04-24T14:32:50;1.83;;;1.73;;
253;SDS011;590;48.772;8.846;2023-04-24T14:35:18;2.30;;;2.10;;
253;SDS011;590;48.772;8.846;2023-04-24T14:37:47;1.80;;;1.70;;
253;SDS011;590;48.772;8.846;2023-04-24T14:40:16;2.47;;;1.70;;
253;SDS011;590;48.772;8.846;2023-04-24T14:43:03;2.00;;;1.90;;
253;SDS011;590;48.772;8.846;2023-04-24T14:45:33;2.50;;;2.30;;
253;SDS011;590;48.772;8.846;2023-04-24T14:48:01;1.80;;;1.70;;
253;SDS011;590;48.772;8.846;2023-04-24T14:50:29;2.20;;;2.00;;
253;SDS011;590;48.772;8.846;2023-04-24T14:52:57;2.00;;;1.90;;
253;SDS011;590;48.772;8.846;2023-04-24T14:55:25;2.17;;;2.00;;
253;SDS011;590;48.772;8.846;2023-04-24T14:57:53;2.90;;;1.97;;
253;SDS011;590;48.772;8.846;2023-04-24T15:00:21;2.00;;;1.90;;
253;SDS011;590;48.772;8.846;2023-04-24T15:02:52;2.37;;;2.20;;
253;SDS011;590;48.772;8.846;2023-04-24T15:05:21;2.23;;;2.03;;
253;SDS011;590;48.772;8.846;2023-04-24T15:07:51;2.07;;;1.93;;
253;SDS011;590;48.772;8.846;2023-04-24T15:10:19;1.70;;;1.60;;
253;SDS011;590;48.772;8.846;2023-04-24T15:12:49;1.73;;;1.60;;
253;SDS011;590;48.772;8.846;2023-04-24T15:15:17;2.10;;;1.87;;
253;SDS011;590;48.772;8.846;2023-04-24T15:17:45;1.90;;;1.80;;
253;SDS011;590;48.772;8.846;2023-04-24T15:20:14;1.53;;;1.43;;
253;SDS011;590;48.772;8.846;2023-04-24T15:22:42;2.13;;;1.97;;
253;SDS011;590;48.772;8.846;2023-04-24T15:25:10;2.33;;;1.90;;
253;SDS011;590;48.772;8.846;2023-04-24T15:27:39;1.70;;;1.60;;
253;SDS011;590;48.772;8.846;2023-04-24T15:30:08;1.80;;;1.70;;
253;SDS011;590;48.772;8.846;2023-04-24T15:32:37;2.40;;;2.20;;
253;SDS011;590;48.772;8.846;2023-04-24T15:35:06;2.70;;;2.50;;
253;SDS011;590;48.772;8.846;2023-04-24T15:37:37;2.40;;;2.20;;
253;SDS011;590;48.772;8.846;2023-04-24T15:40:06;1.60;;;1.50;;
253;SDS011;590;48.772;8.846;2023-04-24T15:42:34;2.20;;;2.00;;
253;SDS011;590;48.772;8.846;2023-04-24T15:45:03;2.97;;;2.80;;
253;SDS011;590;48.772;8.846;2023-04-24T15:47:31;2.60;;;2.40;;
253;SDS011;590;48.772;8.846;2023-04-24T15:50:00;2.13;;;1.97;;
253;SDS011;590;48.772;8.846;2023-04-24T15:52:28;2.30;;;2.00;;
253;SDS011;590;48.772;8.846;2023-04-24T15:54:57;2.43;;;1.90;;
253;SDS011;590;48.772;8.846;2023-04-24T15:57:25;2.40;;;2.20;;
253;SDS011;590;48.772;8.846;2023-04-24T15:59:53;2.03;;;1.83;;